Time;durP1;ratioP1;P1;durP2;ratioP2;P2;SDS_P1;SDS_P2;PMS_P1;PMS_P2;Temp;Humidity;BMP_temperature;BMP_pressure;BME280_temperature;BME280_humidity;BME280_pressure;Samples;Min_cycle;Max_cycle;Signal;HPM_P1;HPM_P2
2021/12/19 00:01:19;;;;;;;41.23;24.87;;;6.30;99.90;;;;;;5059219;28;20466;-62
2021/12/19 00:03:54;;;;;;;38.03;23.80;;;6.30;99.90;;;;;;5059008;28;20513;-62
2021/12/19 00:09:15;;;;;;;45.60;27.57;;;6.30;99.90;;;;;;5021871;28;20458;-62
2021/12/19 00:11:42;;;;;;;42.57;26.03;;;6.40;99.90;;;;;;5058623;28;20470;-63
2021/12/19 00:14:10;;;;;;;44.93;26.67;;;6.40;99.90;;;;;;5059372;28;20462;-62
2021/12/19 00:16:39;;;;;;;51.20;30.20;;;6.40;99.90;;;;;;5060382;28;20494;-62
2021/12/19 00:19:06;;;;;;;50.37;29.97;;;6.40;99.90;;;;;;5059664;28;20763;-62
2021/12/19 00:21:33;;;;;;;44.73;26.50;;;6.40;99.90;;;;;;5068562;28;20520;-62
2021/12/19 00:24:00;;;;;;;50.77;28.67;;;6.40;99.90;;;;;;5059787;28;20470;-62
2021/12/19 00:26:27;;;;;;;43.37;25.77;;;6.40;99.90;;;;;;5062088;28;20758;-62
2021/12/19 00:28:54;;;;;;;41.37;26.60;;;6.40;99.90;;;;;;5064971;28;20458;-62
2021/12/19 00:31:24;;;;;;;43.80;27.57;;;6.40;99.90;;;;;;5059362;28;20473;-62
2021/12/19 00:33:52;;;;;;;47.77;28.17;;;6.40;99.90;;;;;;5060743;28;20470;-62
2021/12/19 00:36:21;;;;;;;51.40;30.57;;;6.40;99.90;;;;;;5057749;28;20589;-62
2021/12/19 00:38:53;;;;;;;42.83;27.83;;;6.40;99.90;;;;;;5039657;28;20962;-62
2021/12/19 00:41:20;;;;;;;45.60;28.70;;;6.40;99.90;;;;;;5058611;28;20458;-62
2021/12/19 00:43:54;;;;;;;38.10;23.60;;;6.30;99.90;;;;;;5070394;28;20528;-62
2021/12/19 00:46:22;;;;;;;38.90;26.30;;;6.40;99.90;;;;;;5059443;28;20872;-62
2021/12/19 00:48:54;;;;;;;42.13;26.47;;;6.40;99.90;;;;;;5059105;28;20454;-62
2021/12/19 00:51:26;;;;;;;42.30;26.13;;;6.40;99.90;;;;;;5061119;28;20467;-62
2021/12/19 00:53:55;;;;;;;39.93;25.50;;;6.40;99.90;;;;;;5058430;28;21228;-62
2021/12/19 00:56:22;;;;;;;41.40;24.10;;;6.40;99.90;;;;;;5057430;28;20500;-62
2021/12/19 00:58:52;;;;;;;41.57;25.97;;;6.30;99.90;;;;;;5056375;28;20519;-62
2021/12/19 01:01:22;;;;;;;34.30;21.67;;;6.40;99.90;;;;;;5056045;28;20466;-62
2021/12/19 01:03:49;;;;;;;41.03;24.80;;;6.30;99.90;;;;;;5071400;28;20515;-62
2021/12/19 01:06:19;;;;;;;41.20;23.90;;;6.30;99.90;;;;;;5057460;28;20469;-62
2021/12/19 01:08:46;;;;;;;40.90;24.73;;;6.30;99.90;;;;;;5056433;28;20507;-62
2021/12/19 01:11:16;;;;;;;42.00;23.40;;;6.30;99.90;;;;;;5057541;28;20524;-62
2021/12/19 01:13:43;;;;;;;40.97;25.40;;;6.30;99.90;;;;;;5058370;28;20462;-62
2021/12/19 01:16:13;;;;;;;35.80;22.50;;;6.20;99.90;;;;;;5058367;28;20494;-62
2021/12/19 01:18:42;;;;;;;39.27;21.83;;;6.30;99.90;;;;;;5075706;28;20874;-62
2021/12/19 01:21:09;;;;;;;35.03;21.87;;;6.30;99.90;;;;;;5075820;28;20878;-62
2021/12/19 01:23:38;;;;;;;36.70;20.30;;;6.20;99.90;;;;;;5058819;28;20965;-62
2021/12/19 01:26:05;;;;;;;36.00;20.70;;;6.20;99.90;;;;;;5063721;28;20964;-62
2021/12/19 01:28:32;;;;;;;30.67;19.57;;;6.20;99.90;;;;;;5078064;28;20556;-62
2021/12/19 01:30:59;;;;;;;37.10;21.30;;;6.30;99.90;;;;;;5068262;28;20462;-62
2021/12/19 01:33:26;;;;;;;34.00;19.30;;;6.20;99.90;;;;;;5058122;28;20954;-62
2021/12/19 01:35:53;;;;;;;32.10;20.13;;;6.20;99.90;;;;;;5069231;28;20465;-62
2021/12/19 01:38:20;;;;;;;34.10;19.37;;;6.20;99.90;;;;;;5078669;28;20462;-62
2021/12/19 01:40:50;;;;;;;30.23;19.33;;;6.30;99.90;;;;;;5077483;28;20515;-61
2021/12/19 01:43:20;;;;;;;29.13;18.37;;;6.20;99.90;;;;;;5078539;28;20464;-61
2021/12/19 01:45:47;;;;;;;29.90;18.70;;;6.20;99.90;;;;;;5076123;28;20472;-62
2021/12/19 01:48:14;;;;;;;32.50;20.03;;;6.20;99.90;;;;;;5074937;28;20506;-61
2021/12/19 01:50:42;;;;;;;31.40;19.57;;;6.20;99.90;;;;;;5061527;28;20465;-61
2021/12/19 01:53:12;;;;;;;30.40;19.03;;;6.20;99.90;;;;;;5061988;28;20897;-62
2021/12/19 01:55:39;;;;;;;30.73;18.53;;;6.20;99.90;;;;;;5071775;28;20555;-61
2021/12/19 01:58:09;;;;;;;29.50;19.47;;;6.20;99.90;;;;;;5080958;28;20493;-61
2021/12/19 02:00:39;;;;;;;30.20;18.57;;;6.20;99.90;;;;;;5079501;28;20526;-62
2021/12/19 02:03:08;;;;;;;30.43;19.93;;;6.20;99.90;;;;;;5081326;28;20897;-62
2021/12/19 02:05:37;;;;;;;38.27;21.40;;;6.20;99.90;;;;;;5080842;28;20436;-62
2021/12/19 02:08:05;;;;;;;41.80;22.67;;;6.20;99.90;;;;;;5081622;28;20461;-62
2021/12/19 02:10:34;;;;;;;46.77;25.33;;;6.20;99.90;;;;;;5050351;28;20467;-62
2021/12/19 02:13:03;;;;;;;38.30;22.80;;;6.20;99.90;;;;;;5034513;28;20464;-62
2021/12/19 02:15:34;;;;;;;48.17;26.10;;;6.20;99.90;;;;;;5054803;28;20466;-62
2021/12/19 02:18:04;;;;;;;48.30;26.50;;;6.20;99.90;;;;;;5060341;28;20930;-62
2021/12/19 02:20:37;;;;;;;47.07;27.80;;;6.20;99.90;;;;;;5057674;28;21003;-61
2021/12/19 02:23:04;;;;;;;48.87;26.07;;;6.20;99.90;;;;;;5050776;28;20958;-62
2021/12/19 02:25:32;;;;;;;51.40;27.80;;;6.20;99.90;;;;;;5052966;28;20544;-62
2021/12/19 02:28:00;;;;;;;52.03;28.17;;;6.20;99.90;;;;;;5060346;28;20462;-62
2021/12/19 02:30:28;;;;;;;49.03;28.60;;;6.20;99.90;;;;;;5060375;28;20469;-61
2021/12/19 02:32:55;;;;;;;57.80;30.30;;;6.20;99.90;;;;;;5060859;28;20469;-62
2021/12/19 02:35:26;;;;;;;60.83;31.27;;;6.10;99.90;;;;;;5061278;28;20895;-61
2021/12/19 02:48:56;;;;;;;57.30;28.60;;;6.20;99.90;;;;;;5028083;28;20506;-62
2021/12/19 02:51:29;;;;;;;55.67;30.20;;;6.20;99.90;;;;;;5020850;28;20478;-61
2021/12/19 02:54:00;;;;;;;51.83;28.17;;;6.10;99.90;;;;;;5037474;28;20482;-61
2021/12/19 02:56:27;;;;;;;52.77;29.77;;;6.10;99.90;;;;;;5040187;28;20776;-61
2021/12/19 02:58:57;;;;;;;51.17;30.07;;;6.20;99.90;;;;;;5039705;28;20463;-61
2021/12/19 03:01:24;;;;;;;51.23;29.57;;;6.10;99.90;;;;;;5039769;28;20463;-61
2021/12/19 03:03:51;;;;;;;52.30;28.13;;;6.10;99.90;;;;;;5040565;28;20470;-61
2021/12/19 03:06:19;;;;;;;51.33;28.97;;;6.20;99.90;;;;;;5041019;28;20459;-61
2021/12/19 03:08:49;;;;;;;51.03;28.43;;;6.20;99.90;;;;;;5044918;28;20547;-61
2021/12/19 03:19:34;;;;;;;47.47;28.10;;;6.10;99.90;;;;;;5059733;28;20473;-61
2021/12/19 03:22:02;;;;;;;47.80;29.50;;;6.00;99.90;;;;;;5072852;28;20519;-61
2021/12/19 03:24:29;;;;;;;44.97;28.20;;;6.00;99.90;;;;;;5079506;28;20531;-60
2021/12/19 03:26:57;;;;;;;42.90;28.20;;;6.10;99.90;;;;;;5075311;28;20431;-61
2021/12/19 03:29:24;;;;;;;34.77;21.67;;;6.10;99.90;;;;;;5058056;28;20466;-61
2021/12/19 03:31:54;;;;;;;28.77;19.60;;;6.00;99.90;;;;;;5058521;28;20462;-62
2021/12/19 03:34:21;;;;;;;32.20;19.70;;;6.00;99.90;;;;;;5056523;28;20466;-61
2021/12/19 03:36:52;;;;;;;24.67;18.10;;;5.90;99.90;;;;;;5057954;28;20532;-60
2021/12/19 03:39:32;;;;;;;26.97;18.80;;;5.90;99.90;;;;;;5056684;28;20441;-60
2021/12/19 03:42:01;;;;;;;24.87;16.97;;;5.90;99.90;;;;;;5054980;28;20528;-60
2021/12/19 03:44:28;;;;;;;26.13;18.70;;;5.90;99.90;;;;;;5055778;28;20450;-61
2021/12/19 03:46:56;;;;;;;27.03;18.63;;;5.90;99.90;;;;;;5056587;28;20485;-60
2021/12/19 03:49:24;;;;;;;29.50;18.57;;;5.90;99.90;;;;;;5054048;28;20940;-61
2021/12/19 03:51:51;;;;;;;26.17;17.47;;;6.00;99.90;;;;;;5058269;28;20921;-61
2021/12/19 03:54:18;;;;;;;24.83;18.87;;;6.00;99.90;;;;;;5057452;28;20496;-61
2021/12/19 03:56:45;;;;;;;29.80;18.43;;;5.90;99.90;;;;;;5057366;28;20458;-61
2021/12/19 03:59:13;;;;;;;29.10;18.37;;;6.00;99.90;;;;;;5054034;28;20462;-61
2021/12/19 04:01:46;;;;;;;26.93;17.80;;;6.00;99.90;;;;;;5056362;28;20976;-61
2021/12/19 04:04:13;;;;;;;29.67;20.10;;;6.00;99.90;;;;;;5055730;28;20811;-61
2021/12/19 04:06:40;;;;;;;31.37;19.30;;;5.90;99.90;;;;;;5057095;28;20462;-60
2021/12/19 04:09:07;;;;;;;34.77;20.17;;;6.00;99.90;;;;;;5057988;28;20490;-61
2021/12/19 04:11:34;;;;;;;39.20;23.83;;;6.00;99.90;;;;;;5056426;28;20451;-61
2021/12/19 04:14:02;;;;;;;33.30;21.87;;;6.00;99.90;;;;;;5057432;28;20458;-61
2021/12/19 04:16:30;;;;;;;34.87;21.90;;;6.00;99.90;;;;;;5057205;28;20462;-61
2021/12/19 04:18:59;;;;;;;37.30;22.60;;;6.00;99.90;;;;;;5057473;28;20490;-61
2021/12/19 04:21:26;;;;;;;35.20;20.70;;;6.00;99.90;;;;;;5057557;28;20588;-61
2021/12/19 04:23:56;;;;;;;30.73;20.17;;;6.00;99.90;;;;;;5054911;28;20876;-61
2021/12/19 04:26:23;;;;;;;27.90;18.10;;;5.90;99.90;;;;;;5057058;28;20462;-61
2021/12/19 04:28:52;;;;;;;32.37;20.77;;;6.00;99.90;;;;;;5056399;28;20477;-61
2021/12/19 04:31:20;;;;;;;29.87;18.80;;;6.00;99.90;;;;;;5056568;28;20454;-61
2021/12/19 04:33:49;;;;;;;27.03;17.20;;;6.00;99.90;;;;;;5055538;28;20458;-61
2021/12/19 04:36:25;;;;;;;25.03;15.80;;;5.90;99.90;;;;;;5057380;28;20567;-61
2021/12/19 04:39:17;;;;;;;30.20;17.23;;;5.90;99.90;;;;;;5056110;28;20489;-61
2021/12/19 04:42:27;;;;;;;21.13;14.30;;;6.00;99.90;;;;;;5055395;28;20867;-61
2021/12/19 04:53:25;;;;;;;32.10;18.00;;;6.00;99.90;;;;;;5001666;28;20483;-61
2021/12/19 05:01:59;;;;;;;35.43;20.97;;;6.10;99.90;;;;;;5055645;28;20438;-61
2021/12/19 05:05:04;;;;;;;46.40;26.00;;;6.10;99.90;;;;;;5055670;28;20450;-61
2021/12/19 05:15:49;;;;;;;41.47;24.80;;;6.10;99.90;;;;;;5056084;28;21134;-61
2021/12/19 05:18:17;;;;;;;46.40;27.97;;;6.10;99.90;;;;;;5055037;28;20517;-61
2021/12/19 05:20:52;;;;;;;45.57;26.20;;;6.10;99.90;;;;;;5056308;28;20751;-61
2021/12/19 05:23:33;;;;;;;49.03;27.20;;;6.10;99.90;;;;;;5059137;28;20903;-61
2021/12/19 05:26:01;;;;;;;42.87;27.00;;;6.10;99.90;;;;;;5059685;28;20461;-61
2021/12/19 05:28:28;;;;;;;45.87;26.40;;;6.10;99.90;;;;;;5059841;28;20458;-61
2021/12/19 05:30:56;;;;;;;48.53;27.30;;;6.20;99.90;;;;;;5060007;28;20503;-61
2021/12/19 05:33:26;;;;;;;53.57;28.93;;;6.20;99.90;;;;;;5060535;28;21177;-61
2021/12/19 05:36:10;;;;;;;44.83;27.17;;;6.20;99.90;;;;;;5061280;28;20457;-61
2021/12/19 05:46:56;;;;;;;57.77;29.10;;;6.10;99.90;;;;;;5058858;28;20513;-61
2021/12/19 05:49:23;;;;;;;55.10;29.70;;;6.10;99.90;;;;;;5060137;28;20501;-61
2021/12/19 05:51:51;;;;;;;54.97;30.10;;;6.10;99.90;;;;;;5060284;28;20458;-61
2021/12/19 05:54:19;;;;;;;54.13;30.17;;;6.10;99.90;;;;;;5061706;28;20869;-61
2021/12/19 05:56:47;;;;;;;51.40;30.53;;;6.00;99.90;;;;;;5059418;28;20542;-61
2021/12/19 05:59:14;;;;;;;48.43;27.53;;;5.90;99.90;;;;;;5060071;28;20490;-61
2021/12/19 06:01:42;;;;;;;46.77;27.90;;;5.90;99.90;;;;;;5059699;28;20553;-61
2021/12/19 06:04:10;;;;;;;48.50;28.17;;;5.90;99.90;;;;;;5057655;28;20462;-61
2021/12/19 06:06:37;;;;;;;50.60;27.97;;;5.80;99.90;;;;;;5059862;28;20818;-61
2021/12/19 06:09:05;;;;;;;46.23;27.07;;;5.80;99.90;;;;;;5061342;28;20512;-61
2021/12/19 06:11:34;;;;;;;46.43;27.57;;;5.80;99.90;;;;;;5060974;28;20465;-61
2021/12/19 06:14:01;;;;;;;50.17;28.40;;;5.90;99.90;;;;;;5064227;28;20545;-62
2021/12/19 06:16:30;;;;;;;41.87;27.10;;;5.80;99.90;;;;;;5060688;28;20463;-62
2021/12/19 06:19:03;;;;;;;38.77;21.63;;;5.80;99.90;;;;;;5060839;28;20490;-62
2021/12/19 06:21:30;;;;;;;37.53;23.63;;;5.80;99.90;;;;;;5061243;28;20461;-61
2021/12/19 06:23:57;;;;;;;34.23;21.67;;;5.60;99.90;;;;;;5061098;28;20459;-62
2021/12/19 06:26:24;;;;;;;36.23;21.47;;;5.60;99.90;;;;;;5060043;28;20810;-62
2021/12/19 06:28:52;;;;;;;40.27;23.60;;;5.60;99.90;;;;;;5062182;28;20429;-61
2021/12/19 06:31:29;;;;;;;37.20;22.23;;;5.70;99.90;;;;;;5060534;28;20828;-61
2021/12/19 06:33:56;;;;;;;29.23;16.60;;;5.60;99.90;;;;;;5062665;28;20537;-61
2021/12/19 06:36:24;;;;;;;21.43;15.30;;;5.50;99.90;;;;;;5060641;28;20512;-61
2021/12/19 06:38:52;;;;;;;17.13;10.77;;;5.40;99.90;;;;;;5060587;28;20494;-62
2021/12/19 06:41:19;;;;;;;17.10;12.03;;;5.30;99.90;;;;;;5061445;28;20466;-62
2021/12/19 06:43:53;;;;;;;20.87;12.53;;;5.30;99.90;;;;;;5060768;28;20466;-61
2021/12/19 06:46:25;;;;;;;19.30;11.73;;;5.30;99.90;;;;;;5056277;28;20524;-61
2021/12/19 06:48:52;;;;;;;17.73;11.03;;;5.40;99.90;;;;;;5057372;28;20508;-62
2021/12/19 06:51:19;;;;;;;19.80;11.50;;;5.30;99.90;;;;;;5059581;28;20509;-61
2021/12/19 06:53:49;;;;;;;18.53;10.57;;;5.30;99.90;;;;;;5059880;28;20462;-62
2021/12/19 06:56:16;;;;;;;16.47;9.77;;;5.40;99.90;;;;;;5060625;28;20470;-61
2021/12/19 06:58:43;;;;;;;15.57;8.90;;;5.30;99.90;;;;;;5060098;28;20486;-61
2021/12/19 07:01:10;;;;;;;14.47;8.70;;;5.40;99.90;;;;;;5060304;28;20523;-62
2021/12/19 07:03:41;;;;;;;12.93;7.30;;;5.30;99.90;;;;;;5060614;28;20462;-61
2021/12/19 07:06:08;;;;;;;10.47;7.20;;;5.30;99.90;;;;;;5060671;28;20786;-62
2021/12/19 07:08:35;;;;;;;15.77;8.13;;;5.40;99.90;;;;;;5060152;28;20500;-62
2021/12/19 07:11:05;;;;;;;13.30;7.50;;;5.40;99.90;;;;;;5060297;28;20903;-61
2021/12/19 07:13:35;;;;;;;13.10;7.43;;;5.40;99.90;;;;;;5059911;28;20467;-61
2021/12/19 07:16:02;;;;;;;11.10;7.97;;;5.40;99.90;;;;;;5059862;28;20470;-62
2021/12/19 07:18:29;;;;;;;15.90;8.07;;;5.40;99.90;;;;;;5060308;28;20909;-61
2021/12/19 07:20:59;;;;;;;12.80;8.33;;;5.40;99.90;;;;;;5060183;28;20457;-61
2021/12/19 07:23:27;;;;;;;13.60;8.53;;;5.40;99.90;;;;;;5059743;28;20466;-62
2021/12/19 07:25:54;;;;;;;19.00;11.83;;;5.30;99.90;;;;;;5059556;28;20481;-62
2021/12/19 07:28:24;;;;;;;15.23;9.63;;;5.40;99.90;;;;;;5060257;28;20813;-61
2021/12/19 07:30:51;;;;;;;19.20;11.47;;;5.40;99.90;;;;;;5059634;28;20810;-62
2021/12/19 07:33:20;;;;;;;18.70;11.47;;;5.30;99.90;;;;;;5059783;28;20437;-62
2021/12/19 07:35:49;;;;;;;18.17;12.37;;;5.40;99.90;;;;;;5059765;28;20462;-62
2021/12/19 07:38:24;;;;;;;18.50;11.57;;;5.40;99.90;;;;;;5059549;28;21007;-61
2021/12/19 07:40:53;;;;;;;20.53;12.83;;;5.40;99.90;;;;;;5059580;28;20576;-62
2021/12/19 07:43:20;;;;;;;22.30;12.70;;;5.30;99.90;;;;;;5054102;28;20548;-62
2021/12/19 07:45:47;;;;;;;21.20;12.83;;;5.30;99.90;;;;;;5057029;28;20527;-62
2021/12/19 07:48:14;;;;;;;20.00;12.80;;;5.40;99.90;;;;;;5059271;28;20459;-61
2021/12/19 07:50:41;;;;;;;18.23;12.03;;;5.40;99.90;;;;;;5058704;28;20466;-62
2021/12/19 07:53:08;;;;;;;18.93;12.90;;;5.40;99.90;;;;;;5059274;28;20738;-62
2021/12/19 07:55:37;;;;;;;21.63;11.40;;;5.50;99.90;;;;;;5059663;28;20738;-62
2021/12/19 07:58:07;;;;;;;18.53;12.57;;;5.40;99.90;;;;;;5058988;28;20512;-62
2021/12/19 08:00:38;;;;;;;15.93;10.80;;;5.40;99.90;;;;;;5060293;28;20495;-62
2021/12/19 08:03:05;;;;;;;18.40;11.10;;;5.40;99.90;;;;;;5058540;28;20458;-62
2021/12/19 08:05:32;;;;;;;16.53;10.80;;;5.40;99.90;;;;;;5058364;28;20462;-61
2021/12/19 08:08:03;;;;;;;19.93;12.57;;;5.50;99.90;;;;;;5058665;28;20568;-62
2021/12/19 08:13:18;;;;;;;21.47;13.17;;;5.60;99.90;;;;;;5058955;28;20436;-61
2021/12/19 08:15:45;;;;;;;31.83;18.93;;;5.60;99.90;;;;;;5070086;28;20871;-61
2021/12/19 08:18:12;;;;;;;32.30;20.40;;;5.60;99.90;;;;;;5058785;28;20490;-61
2021/12/19 08:20:39;;;;;;;33.30;19.70;;;5.60;99.90;;;;;;5067486;28;20462;-61
2021/12/19 08:23:06;;;;;;;34.07;20.67;;;5.60;99.90;;;;;;5062853;28;20469;-61
2021/12/19 08:25:35;;;;;;;35.23;22.03;;;5.60;99.90;;;;;;5073347;28;20516;-62
2021/12/19 08:28:02;;;;;;;37.40;22.97;;;5.60;99.90;;;;;;5061204;28;20462;-62
2021/12/19 08:30:32;;;;;;;39.93;24.17;;;5.70;99.90;;;;;;5072698;28;20466;-62
2021/12/19 08:33:05;;;;;;;37.10;24.13;;;5.60;99.90;;;;;;5065445;28;20576;-62
2021/12/19 08:35:33;;;;;;;37.37;25.37;;;5.60;99.90;;;;;;5057575;28;20466;-62
2021/12/19 08:38:00;;;;;;;37.97;23.30;;;5.60;99.90;;;;;;5059071;28;20519;-61
2021/12/19 08:40:29;;;;;;;34.83;22.70;;;5.70;99.90;;;;;;5052480;28;20471;-62
2021/12/19 08:42:57;;;;;;;36.10;22.10;;;5.70;99.90;;;;;;5051122;28;21226;-61
2021/12/19 08:45:24;;;;;;;37.90;23.20;;;5.70;99.90;;;;;;5061756;28;20466;-62
2021/12/19 08:47:53;;;;;;;35.20;22.40;;;5.70;99.90;;;;;;5070086;28;20458;-61
2021/12/19 08:50:21;;;;;;;34.40;21.47;;;5.70;99.90;;;;;;5063220;28;20468;-62
2021/12/19 08:52:48;;;;;;;35.40;22.73;;;5.60;99.90;;;;;;5070265;28;20476;-62
2021/12/19 08:55:15;;;;;;;36.30;22.00;;;5.70;99.90;;;;;;5057897;28;20462;-61
2021/12/19 08:57:42;;;;;;;29.63;17.27;;;5.70;99.90;;;;;;5060792;28;20462;-62
2021/12/19 09:00:11;;;;;;;26.40;16.17;;;5.80;99.90;;;;;;5061881;28;20520;-62
2021/12/19 09:02:41;;;;;;;22.83;15.40;;;5.70;99.90;;;;;;5063485;28;20473;-62
2021/12/19 09:05:10;;;;;;;30.60;17.30;;;5.70;99.90;;;;;;5061657;28;20953;-61
2021/12/19 09:07:40;;;;;;;31.00;18.30;;;5.70;99.90;;;;;;5063182;28;20470;-61
2021/12/19 09:10:11;;;;;;;32.83;18.30;;;5.70;99.90;;;;;;5061736;28;20509;-62
2021/12/19 09:12:38;;;;;;;26.17;15.90;;;5.80;99.90;;;;;;5062687;28;20520;-62
2021/12/19 09:15:06;;;;;;;23.70;16.43;;;5.70;99.90;;;;;;5061079;28;20458;-61
2021/12/19 09:17:33;;;;;;;24.10;15.53;;;5.70;99.90;;;;;;5060181;28;20519;-62
2021/12/19 09:20:00;;;;;;;22.73;15.03;;;5.70;99.90;;;;;;5061258;28;20543;-62
2021/12/19 09:22:28;;;;;;;22.93;14.20;;;5.70;99.90;;;;;;5061240;28;20488;-62
2021/12/19 09:25:01;;;;;;;21.67;14.00;;;5.70;99.90;;;;;;5058358;28;20453;-62
2021/12/19 09:27:28;;;;;;;24.10;14.07;;;5.80;99.90;;;;;;5060589;28;20466;-62
2021/12/19 09:29:55;;;;;;;16.27;10.67;;;5.90;99.90;;;;;;5062091;28;20463;-62
2021/12/19 09:32:22;;;;;;;15.57;11.67;;;5.90;99.90;;;;;;5059507;28;20465;-61
2021/12/19 09:34:49;;;;;;;19.70;11.53;;;5.90;99.90;;;;;;5058556;28;20458;-62
2021/12/19 09:37:22;;;;;;;15.57;10.77;;;5.90;99.90;;;;;;5058416;28;20826;-61
2021/12/19 09:39:51;;;;;;;16.57;11.37;;;5.90;99.90;;;;;;5059342;28;20485;-61
2021/12/19 09:42:21;;;;;;;19.53;13.03;;;6.00;99.90;;;;;;5058368;28;20468;-61
2021/12/19 09:44:48;;;;;;;15.37;11.57;;;5.90;99.90;;;;;;5059220;28;20548;-61
2021/12/19 09:47:15;;;;;;;17.53;12.57;;;6.00;99.90;;;;;;5059687;28;20880;-61
2021/12/19 09:49:42;;;;;;;17.37;12.67;;;6.10;99.90;;;;;;5057458;28;20454;-61
2021/12/19 09:52:09;;;;;;;18.67;13.03;;;6.00;99.90;;;;;;5059787;28;20889;-61
2021/12/19 09:54:39;;;;;;;19.20;12.60;;;6.10;99.90;;;;;;5060122;28;20455;-62
2021/12/19 09:57:09;;;;;;;13.87;10.30;;;6.20;99.90;;;;;;5059801;28;20819;-61
2021/12/19 09:59:38;;;;;;;14.30;11.00;;;6.10;99.90;;;;;;5059365;28;20482;-61
2021/12/19 10:02:05;;;;;;;16.73;11.57;;;6.20;99.90;;;;;;5060472;28;20458;-62
2021/12/19 10:04:36;;;;;;;15.40;10.77;;;6.10;99.90;;;;;;5061274;28;20465;-61
2021/12/19 10:07:15;;;;;;;14.30;11.53;;;6.20;99.90;;;;;;5060702;28;20497;-62
2021/12/19 10:10:00;;;;;;;15.00;11.73;;;6.10;99.90;;;;;;5060635;28;20930;-62
2021/12/19 10:12:48;;;;;;;13.13;9.27;;;6.10;99.90;;;;;;5060466;28;20462;-61
2021/12/19 10:15:20;;;;;;;11.50;8.57;;;5.90;99.90;;;;;;5060929;28;20462;-61
2021/12/19 10:17:48;;;;;;;10.20;8.27;;;6.00;99.90;;;;;;5061851;28;20458;-62
2021/12/19 10:20:16;;;;;;;13.97;9.57;;;6.00;99.90;;;;;;5058676;28;20490;-62
2021/12/19 10:22:45;;;;;;;11.10;9.03;;;6.00;99.90;;;;;;5061540;28;20462;-61
2021/12/19 10:25:19;;;;;;;11.43;8.53;;;6.10;99.90;;;;;;5060825;28;20437;-61
2021/12/19 10:27:50;;;;;;;12.30;8.40;;;6.00;99.90;;;;;;5062487;28;20512;-61
2021/12/19 10:30:26;;;;;;;13.50;8.80;;;6.00;99.90;;;;;;5066938;28;20457;-61
2021/12/19 10:32:56;;;;;;;14.37;10.30;;;6.00;99.90;;;;;;5080391;28;20523;-62
2021/12/19 10:35:31;;;;;;;16.30;10.30;;;6.10;99.90;;;;;;5067137;28;20463;-61
2021/12/19 10:38:01;;;;;;;13.20;10.77;;;6.20;99.90;;;;;;5059264;28;20519;-61
2021/12/19 10:40:29;;;;;;;15.33;10.43;;;6.20;99.90;;;;;;5060648;28;20548;-61
2021/12/19 10:43:04;;;;;;;16.43;11.93;;;6.20;99.90;;;;;;5079893;28;20465;-61
2021/12/19 10:45:36;;;;;;;16.37;12.80;;;6.20;99.90;;;;;;5075765;28;20464;-61
2021/12/19 10:48:16;;;;;;;15.03;10.60;;;6.20;99.90;;;;;;5059636;28;20796;-61
2021/12/19 10:50:59;;;;;;;17.30;12.23;;;6.10;99.90;;;;;;5065168;28;20453;-62
2021/12/19 10:53:29;;;;;;;17.90;13.47;;;6.20;99.90;;;;;;5064536;28;20491;-62
2021/12/19 10:55:58;;;;;;;17.43;13.20;;;6.10;99.90;;;;;;5055403;28;20489;-61
2021/12/19 10:58:33;;;;;;;18.23;12.77;;;6.10;99.90;;;;;;5060418;28;20740;-61
2021/12/19 11:01:05;;;;;;;14.73;11.73;;;6.10;99.90;;;;;;5064594;28;20461;-61
2021/12/19 11:03:45;;;;;;;17.77;13.93;;;6.10;99.90;;;;;;5079998;28;20465;-62
2021/12/19 11:06:29;;;;;;;18.30;12.77;;;6.00;99.90;;;;;;5077304;28;20530;-61
2021/12/19 11:08:59;;;;;;;16.77;13.63;;;5.90;99.90;;;;;;5073994;28;20536;-61
2021/12/19 11:11:50;;;;;;;20.77;14.90;;;6.00;99.90;;;;;;5059157;28;20545;-61
2021/12/19 11:14:24;;;;;;;18.57;12.37;;;6.00;99.90;;;;;;5079875;28;20507;-61
2021/12/19 11:16:52;;;;;;;18.50;12.63;;;6.00;99.90;;;;;;5068055;28;20461;-62
2021/12/19 11:19:20;;;;;;;19.80;13.47;;;6.00;99.90;;;;;;5060755;28;20485;-61
2021/12/19 11:21:47;;;;;;;20.37;14.00;;;6.00;99.90;;;;;;5039139;28;20819;-61
2021/12/19 11:24:17;;;;;;;15.80;12.13;;;6.10;99.90;;;;;;5049225;28;20470;-61
2021/12/19 11:26:45;;;;;;;21.97;13.90;;;6.20;99.90;;;;;;5059872;28;20520;-61
2021/12/19 11:29:13;;;;;;;21.43;15.33;;;6.30;99.90;;;;;;5059863;28;20883;-61
2021/12/19 11:31:45;;;;;;;19.10;13.90;;;6.20;99.90;;;;;;5062865;28;20457;-61
2021/12/19 11:34:24;;;;;;;19.60;13.60;;;6.20;99.90;;;;;;5078406;28;20457;-61
2021/12/19 11:36:57;;;;;;;22.00;13.73;;;6.10;99.90;;;;;;5075016;28;20465;-61
2021/12/19 11:39:35;;;;;;;19.10;13.10;;;6.10;99.90;;;;;;5074609;28;20840;-61
2021/12/19 11:42:11;;;;;;;18.53;12.93;;;6.20;99.90;;;;;;5059415;28;20465;-61
2021/12/19 11:44:57;;;;;;;18.33;13.90;;;6.10;99.90;;;;;;5068336;28;20500;-62
2021/12/19 11:47:49;;;;;;;19.63;13.80;;;6.10;99.90;;;;;;5070227;28;20469;-62
2021/12/19 11:50:22;;;;;;;21.73;15.37;;;6.00;99.90;;;;;;5041279;28;20900;-61
2021/12/19 11:52:52;;;;;;;21.50;16.43;;;6.20;99.90;;;;;;5059104;28;20964;-62
2021/12/19 11:55:34;;;;;;;18.57;15.77;;;6.20;99.90;;;;;;5058705;28;20458;-61
2021/12/19 11:58:25;;;;;;;18.37;14.00;;;6.10;99.90;;;;;;5061116;28;20477;-62
2021/12/19 12:01:18;;;;;;;16.23;13.73;;;6.00;99.90;;;;;;5059136;28;20913;-61
2021/12/19 12:03:54;;;;;;;17.17;12.87;;;6.00;99.90;;;;;;5072201;28;20808;-62
2021/12/19 12:06:32;;;;;;;20.07;14.60;;;6.00;99.90;;;;;;5078293;28;20456;-62
2021/12/19 12:09:21;;;;;;;18.33;12.67;;;6.00;99.90;;;;;;5058546;28;20568;-62
2021/12/19 12:12:12;;;;;;;19.20;13.40;;;5.90;99.90;;;;;;5059181;28;20466;-61
2021/12/19 12:14:42;;;;;;;20.57;12.70;;;6.00;99.90;;;;;;5058960;28;20498;-62
2021/12/19 12:17:15;;;;;;;17.00;10.80;;;6.00;99.90;;;;;;5071029;28;20465;-62
2021/12/19 12:19:47;;;;;;;12.27;8.23;;;6.00;99.90;;;;;;5078676;28;20795;-62
2021/12/19 12:22:50;;;;;;;12.50;8.00;;;5.90;99.90;;;;;;5062180;28;20462;-62
2021/12/19 12:25:22;;;;;;;10.60;8.60;;;5.90;99.90;;;;;;5061828;28;20729;-62
2021/12/19 12:27:53;;;;;;;11.77;8.30;;;6.00;99.90;;;;;;5078223;28;20894;-62
2021/12/19 12:30:25;;;;;;;7.67;6.57;;;5.90;99.90;;;;;;5078143;28;20975;-61
2021/12/19 12:32:52;;;;;;;8.47;7.10;;;5.80;99.90;;;;;;5078132;28;20457;-62
2021/12/19 12:35:28;;;;;;;8.47;6.63;;;5.90;99.90;;;;;;5078580;28;20496;-61
2021/12/19 12:37:58;;;;;;;7.77;6.50;;;5.90;99.90;;;;;;5076652;28;20481;-62
2021/12/19 12:40:29;;;;;;;7.80;6.00;;;5.90;99.90;;;;;;5076555;28;20841;-61
2021/12/19 12:43:05;;;;;;;7.10;5.40;;;5.90;99.90;;;;;;5078865;28;20787;-62
2021/12/19 12:46:11;;;;;;;7.40;5.77;;;5.90;99.90;;;;;;5075333;28;20471;-62
2021/12/19 12:48:48;;;;;;;6.93;5.43;;;5.80;99.90;;;;;;5049626;28;20470;-62
2021/12/19 12:51:25;;;;;;;7.60;5.70;;;5.80;99.90;;;;;;5039031;28;20815;-62
2021/12/19 12:53:54;;;;;;;7.50;6.17;;;5.90;99.90;;;;;;5048439;28;20570;-62
2021/12/19 12:56:24;;;;;;;7.40;5.77;;;5.90;99.90;;;;;;5059578;28;20462;-62
2021/12/19 12:59:00;;;;;;;7.13;6.17;;;6.00;99.90;;;;;;5060362;28;20436;-62
2021/12/19 13:01:34;;;;;;;6.93;5.33;;;5.90;99.90;;;;;;5068933;28;20592;-62
2021/12/19 13:04:18;;;;;;;5.53;5.00;;;5.90;99.90;;;;;;5072944;28;20462;-62
2021/12/19 13:07:05;;;;;;;5.60;4.90;;;6.00;99.90;;;;;;5058441;28;20457;-61
2021/12/19 13:09:36;;;;;;;6.27;5.07;;;5.90;99.90;;;;;;5073771;28;20477;-61
2021/12/19 13:12:14;;;;;;;6.80;5.17;;;5.90;99.90;;;;;;5076879;28;20496;-61
2021/12/19 13:14:46;;;;;;;8.40;5.50;;;5.90;99.90;;;;;;5038008;28;20462;-61
2021/12/19 13:17:15;;;;;;;6.70;6.00;;;5.90;99.90;;;;;;5053276;28;20468;-61
2021/12/19 13:19:50;;;;;;;6.03;4.47;;;6.00;99.90;;;;;;5072897;28;20521;-61
2021/12/19 13:22:34;;;;;;;4.20;3.80;;;5.90;99.90;;;;;;5068572;28;20806;-61
2021/12/19 13:25:09;;;;;;;4.20;3.70;;;5.90;99.90;;;;;;5057863;28;20436;-62
2021/12/19 13:27:39;;;;;;;4.43;3.80;;;5.90;99.90;;;;;;5057649;28;20812;-62
2021/12/19 13:30:18;;;;;;;4.93;4.00;;;5.80;99.90;;;;;;5057883;28;20444;-62
2021/12/19 13:32:48;;;;;;;5.90;4.57;;;5.90;99.90;;;;;;5060483;28;20483;-62
2021/12/19 13:35:24;;;;;;;8.03;5.13;;;5.80;99.90;;;;;;5058120;28;20506;-62
2021/12/19 13:38:01;;;;;;;5.73;4.90;;;5.70;99.90;;;;;;5070907;28;20519;-62
2021/12/19 13:40:30;;;;;;;6.10;4.33;;;5.80;99.90;;;;;;5077533;28;20497;-62
2021/12/19 13:42:59;;;;;;;4.90;4.00;;;5.70;99.90;;;;;;5061026;28;20766;-62
2021/12/19 13:45:42;;;;;;;5.60;4.40;;;5.80;99.90;;;;;;5061620;28;20516;-62
2021/12/19 13:48:15;;;;;;;8.70;5.13;;;5.80;99.90;;;;;;5056043;28;20545;-62
2021/12/19 13:50:46;;;;;;;7.13;4.87;;;5.80;99.90;;;;;;5044988;28;20511;-62
2021/12/19 13:53:17;;;;;;;5.50;4.87;;;5.80;99.90;;;;;;5061174;28;20465;-62
2021/12/19 13:55:50;;;;;;;5.70;4.80;;;5.80;99.90;;;;;;5060812;28;20515;-62